createdAt,value
2018-11-02T00:02:23.813Z,7.33
2018-11-02T00:04:52.260Z,6.60
2018-11-02T00:07:21.638Z,5.70
2018-11-02T00:09:51.935Z,8.00
2018-11-02T00:12:23.771Z,6.83
2018-11-02T00:14:52.821Z,6.10
2018-11-02T00:17:21.410Z,7.07
2018-11-02T00:19:50.217Z,7.80
2018-11-02T00:22:19.411Z,21.87
2018-11-02T00:24:48.910Z,8.70
2018-11-02T00:27:17.905Z,6.73
2018-11-02T00:29:46.550Z,9.27
2018-11-02T00:32:15.936Z,8.50
2018-11-02T00:34:44.420Z,6.77
2018-11-02T00:37:13.247Z,6.83
2018-11-02T00:39:43.117Z,7.13
2018-11-02T00:42:12.361Z,6.83
2018-11-02T00:44:42.223Z,6.50
2018-11-02T00:47:10.771Z,6.37
2018-11-02T00:49:40.007Z,7.13
2018-11-02T00:52:08.730Z,5.83
2018-11-02T00:54:37.450Z,6.40
2018-11-02T00:57:07.105Z,7.30
2018-11-02T00:59:35.834Z,5.63
2018-11-02T01:02:04.840Z,12.40
2018-11-02T01:04:33.421Z,9.90
2018-11-02T01:07:01.915Z,5.20
2018-11-02T01:09:30.613Z,5.43
2018-11-02T01:11:59.657Z,5.23
2018-11-02T01:14:28.794Z,5.20
2018-11-02T01:16:57.481Z,5.20
2018-11-02T01:19:30.306Z,4.60
2018-11-02T01:21:58.783Z,7.37
2018-11-02T01:24:27.364Z,5.67
2018-11-02T01:26:56.764Z,5.00
2018-11-02T01:29:25.886Z,6.13
2018-11-02T01:31:54.670Z,6.57
2018-11-02T01:34:24.059Z,6.23
2018-11-02T01:36:53.054Z,6.83
2018-11-02T01:39:22.548Z,5.47
2018-11-02T01:41:51.958Z,5.87
2018-11-02T01:44:20.734Z,5.27
2018-11-02T01:46:51.159Z,6.90
2018-11-02T01:49:21.172Z,6.40
2018-11-02T01:51:49.676Z,6.37
2018-11-02T01:54:19.129Z,5.93
2018-11-02T01:56:49.076Z,7.90
2018-11-02T01:59:17.872Z,5.90
2018-11-02T02:01:46.341Z,6.00
2018-11-02T02:04:15.064Z,5.60
2018-11-02T02:06:43.531Z,11.00
2018-11-02T02:09:12.609Z,4.70
2018-11-02T02:11:41.915Z,5.50
2018-11-02T02:14:10.954Z,5.47
2018-11-02T02:16:39.743Z,5.47
2018-11-02T02:19:08.255Z,4.90
2018-11-02T02:21:37.014Z,5.30
2018-11-02T02:24:05.547Z,4.17
2018-11-02T02:26:34.029Z,4.40
2018-11-02T02:29:02.509Z,4.47
2018-11-02T02:31:30.968Z,6.00
2018-11-02T02:33:59.730Z,4.60
2018-11-02T02:36:28.738Z,6.37
2018-11-02T02:38:57.253Z,3.87
2018-11-02T02:41:26.564Z,4.57
2018-11-02T02:43:55.083Z,4.43
2018-11-02T02:46:23.577Z,3.80
2018-11-02T02:48:52.889Z,4.33
2018-11-02T02:51:24.961Z,4.27
2018-11-02T02:53:54.853Z,4.27
2018-11-02T02:56:25.570Z,3.77
2018-11-02T02:58:55.106Z,3.37
2018-11-02T03:01:24.621Z,3.73
2018-11-02T03:03:53.052Z,5.17
2018-11-02T03:06:21.477Z,6.13
2018-11-02T03:08:50.087Z,4.10
2018-11-02T03:11:19.039Z,3.43
2018-11-02T03:13:47.279Z,3.40
2018-11-02T03:16:16.113Z,3.20
2018-11-02T03:18:44.639Z,3.67
2018-11-02T03:21:12.998Z,3.13
2018-11-02T03:23:41.494Z,3.17
2018-11-02T03:26:13.770Z,3.50
2018-11-02T03:28:42.442Z,2.87
2018-11-02T03:31:11.568Z,3.00
2018-11-02T03:33:40.128Z,3.13
2018-11-02T03:36:11.025Z,3.27
2018-11-02T03:38:39.552Z,9.77
2018-11-02T03:41:07.952Z,3.17
2018-11-02T03:43:36.286Z,2.90
2018-11-02T03:46:05.942Z,2.93
2018-11-02T03:48:34.789Z,3.17
2018-11-02T03:51:03.660Z,3.13
2018-11-02T03:53:32.826Z,3.80
2018-11-02T03:56:01.141Z,3.37
2018-11-02T03:58:31.002Z,3.50
2018-11-02T04:00:59.325Z,3.67
2018-11-02T04:03:27.867Z,4.20
2018-11-02T04:05:58.349Z,4.70
2018-11-02T04:08:26.864Z,4.70
2018-11-02T04:10:57.456Z,6.10
2018-11-02T04:13:27.311Z,5.03
2018-11-02T04:15:56.187Z,6.60
2018-11-02T04:18:24.861Z,5.40
2018-11-02T04:20:53.518Z,6.83
2018-11-02T04:23:23.019Z,5.50
2018-11-02T04:25:53.789Z,5.37
2018-11-02T04:28:24.579Z,6.30
2018-11-02T04:30:54.059Z,4.80
2018-11-02T04:33:22.799Z,5.67
2018-11-02T04:35:51.857Z,5.40
2018-11-02T04:38:21.189Z,5.90
2018-11-02T04:40:50.170Z,6.83
2018-11-02T04:43:18.858Z,7.60
2018-11-02T04:45:47.392Z,6.20
2018-11-02T04:48:16.288Z,6.63
2018-11-02T04:50:44.851Z,5.90
2018-11-02T04:53:14.128Z,5.87
2018-11-02T04:55:43.358Z,5.97
2018-11-02T04:58:16.657Z,5.53
2018-11-02T05:00:46.716Z,5.77
2018-11-02T05:03:16.289Z,6.87
2018-11-02T05:05:45.554Z,6.53
2018-11-02T05:08:14.954Z,6.13
2018-11-02T05:10:44.321Z,6.40
2018-11-02T05:13:12.970Z,7.33
2018-11-02T05:15:43.012Z,6.57
2018-11-02T05:18:12.231Z,8.23
2018-11-02T05:20:40.716Z,6.43
2018-11-02T05:23:09.441Z,7.70
2018-11-02T05:25:40.354Z,7.23
2018-11-02T05:28:08.886Z,9.33
2018-11-02T05:30:37.477Z,8.23
2018-11-02T05:33:06.031Z,10.13
2018-11-02T05:35:34.873Z,8.20
2018-11-02T05:38:03.253Z,9.40
2018-11-02T05:40:32.559Z,9.63
2018-11-02T05:43:01.472Z,9.20
2018-11-02T05:45:30.689Z,9.20
2018-11-02T05:47:59.521Z,11.37
2018-11-02T05:50:28.508Z,11.23
2018-11-02T05:52:57.644Z,9.50
2018-11-02T05:55:27.648Z,9.57
2018-11-02T05:57:56.063Z,11.63
2018-11-02T06:00:25.388Z,13.67
2018-11-02T06:02:54.011Z,12.73
2018-11-02T06:05:22.755Z,13.27
2018-11-02T06:07:51.426Z,13.33
2018-11-02T06:10:20.882Z,13.43
2018-11-02T06:12:51.682Z,12.03
2018-11-02T06:15:21.668Z,17.27
2018-11-02T06:17:51.700Z,14.10
2018-11-02T06:20:21.406Z,12.77
2018-11-02T06:22:50.888Z,17.00
2018-11-02T06:25:21.058Z,16.67
2018-11-02T06:27:50.324Z,15.00
2018-11-02T06:30:18.837Z,20.73
2018-11-02T06:32:48.227Z,17.30
2018-11-02T06:35:16.764Z,18.20
2018-11-02T06:37:49.824Z,16.20
2018-11-02T06:40:20.417Z,16.03
2018-11-02T06:42:49.541Z,20.07
2018-11-02T06:45:18.217Z,17.87
2018-11-02T06:47:53.369Z,13.90
2018-11-02T06:50:23.358Z,15.03
2018-11-02T06:52:53.977Z,18.27
2018-11-02T06:55:24.885Z,18.60
2018-11-02T06:57:54.748Z,15.70
2018-11-02T07:00:24.664Z,20.43
2018-11-02T07:02:54.075Z,14.20
2018-11-02T07:05:24.661Z,17.47
2018-11-02T07:07:54.482Z,19.20
2018-11-02T07:10:26.242Z,16.70
2018-11-02T07:13:00.634Z,20.33
2018-11-02T07:15:35.169Z,13.93
2018-11-02T07:18:06.084Z,16.50
2018-11-02T07:20:35.700Z,18.20
2018-11-02T07:23:05.832Z,16.50
2018-11-02T07:25:35.776Z,17.03
2018-11-02T07:28:05.190Z,16.50
2018-11-02T07:30:38.273Z,17.90
2018-11-02T07:33:08.407Z,17.93
2018-11-02T07:35:40.496Z,15.20
2018-11-02T07:38:11.382Z,14.90
2018-11-02T07:40:40.468Z,20.67
2018-11-02T07:43:14.010Z,18.80
2018-11-02T07:45:43.637Z,15.43
2018-11-02T07:48:14.250Z,14.70
2018-11-02T07:50:43.679Z,14.40
2018-11-02T07:53:12.402Z,12.90
2018-11-02T07:55:41.639Z,13.80
2018-11-02T07:58:11.666Z,12.53
2018-11-02T08:00:40.114Z,12.83
2018-11-02T08:03:10.196Z,12.10
2018-11-02T08:05:39.267Z,11.97
2018-11-02T08:08:08.711Z,13.93
2018-11-02T08:10:39.407Z,12.70
2018-11-02T08:13:07.830Z,14.57
2018-11-02T08:15:38.872Z,12.53
2018-11-02T08:18:09.536Z,13.90
2018-11-02T08:20:38.076Z,13.30
2018-11-02T08:23:06.982Z,16.07
2018-11-02T08:25:38.258Z,16.63
2018-11-02T08:28:06.721Z,11.93
2018-11-02T08:30:35.242Z,13.30
2018-11-02T08:33:03.731Z,15.17
2018-11-02T08:35:32.998Z,12.30
2018-11-02T08:38:04.190Z,28.70
2018-11-02T08:40:33.665Z,17.27
2018-11-02T08:43:02.188Z,21.70
2018-11-02T08:45:31.180Z,18.00
2018-11-02T08:48:00.584Z,18.57
2018-11-02T08:50:32.030Z,14.90
2018-11-02T08:53:01.002Z,24.50
2018-11-02T08:55:30.904Z,24.97
2018-11-02T08:58:01.507Z,15.00
2018-11-02T09:00:32.240Z,20.10
2018-11-02T09:03:01.680Z,15.23
2018-11-02T09:05:30.974Z,13.80
2018-11-02T09:07:59.906Z,18.50
2018-11-02T09:10:29.057Z,22.37
2018-11-02T09:12:58.506Z,17.57
2018-11-02T09:15:28.083Z,21.20
2018-11-02T09:17:58.237Z,22.33
2018-11-02T09:20:27.309Z,20.47
2018-11-02T09:22:56.164Z,16.00
2018-11-02T09:25:26.333Z,19.37
2018-11-02T09:27:55.104Z,19.13
2018-11-02T09:30:23.658Z,27.20
2018-11-02T09:32:52.155Z,19.60
2018-11-02T09:35:20.582Z,15.57
2018-11-02T09:37:50.945Z,16.10
2018-11-02T09:40:21.149Z,17.03
2018-11-02T09:42:51.004Z,16.87
2018-11-02T09:45:20.274Z,16.67
2018-11-02T09:47:50.399Z,19.93
2018-11-02T09:50:20.564Z,16.60
2018-11-02T09:52:52.889Z,21.37
2018-11-02T09:55:22.370Z,20.17
2018-11-02T09:57:51.706Z,24.63
2018-11-02T10:00:21.771Z,15.70
2018-11-02T10:02:51.815Z,24.90
2018-11-02T10:05:20.617Z,26.07
2018-11-02T10:07:52.367Z,27.40
2018-11-02T10:10:23.136Z,20.97
2018-11-02T10:12:54.328Z,24.13
2018-11-02T10:15:25.050Z,23.77
2018-11-02T10:17:54.615Z,32.73
2018-11-02T10:20:23.949Z,27.93
2018-11-02T10:22:53.672Z,33.00
2018-11-02T10:25:23.929Z,24.67
2018-11-02T10:27:53.610Z,23.33
2018-11-02T10:30:22.967Z,31.27
2018-11-02T10:32:53.936Z,29.93
2018-11-02T10:35:23.556Z,26.93
2018-11-02T10:37:54.082Z,30.63
2018-11-02T10:40:26.501Z,29.63
2018-11-02T10:43:01.204Z,32.27
2018-11-02T10:45:36.690Z,29.10
2018-11-02T10:50:48.596Z,33.50
2018-11-02T10:53:18.947Z,39.57
2018-11-02T10:55:50.724Z,28.07
2018-11-02T10:58:19.703Z,31.37
2018-11-02T11:00:54.661Z,35.57
2018-11-02T11:03:24.296Z,32.20
2018-11-02T11:05:54.290Z,28.70
2018-11-02T11:08:23.726Z,31.23
2018-11-02T11:10:53.171Z,37.63
2018-11-02T11:13:24.915Z,32.37
2018-11-02T11:15:55.093Z,30.93
2018-11-02T11:18:23.920Z,36.10
2018-11-02T11:20:53.219Z,31.00
2018-11-02T11:23:24.557Z,35.30
2018-11-02T11:25:53.133Z,28.90
2018-11-02T11:28:23.423Z,29.10
2018-11-02T11:30:52.351Z,24.30
2018-11-02T11:33:22.007Z,24.50
2018-11-02T11:35:55.410Z,24.20
2018-11-02T11:38:23.893Z,25.10
2018-11-02T11:40:53.337Z,35.93
2018-11-02T11:43:22.156Z,25.63
2018-11-02T11:45:52.336Z,31.97
2018-11-02T11:48:25.520Z,23.10
2018-11-02T11:50:54.282Z,25.57
2018-11-02T11:53:29.702Z,25.27
2018-11-02T11:56:06.444Z,27.87
2018-11-02T11:58:39.136Z,23.83
2018-11-02T12:01:09.616Z,35.23
2018-11-02T12:03:38.821Z,23.90
2018-11-02T12:06:07.742Z,29.73
2018-11-02T12:08:37.366Z,26.20
2018-11-02T12:11:09.594Z,27.50
2018-11-02T12:13:38.690Z,28.17
2018-11-02T12:16:12.055Z,25.73
2018-11-02T12:18:44.855Z,35.25
2018-11-02T12:21:15.538Z,28.23
2018-11-02T12:23:44.279Z,22.87
2018-11-02T12:26:13.577Z,25.40
2018-11-02T12:28:43.805Z,25.53
2018-11-02T12:31:13.939Z,32.13
2018-11-02T12:33:45.676Z,28.70
2018-11-02T12:36:14.981Z,26.97
2018-11-02T12:38:43.682Z,30.20
2018-11-02T12:41:12.662Z,27.53
2018-11-02T12:43:42.060Z,25.90
2018-11-02T12:46:12.368Z,25.43
2018-11-02T12:48:43.022Z,32.10
2018-11-02T12:51:12.843Z,24.07
2018-11-02T12:53:41.571Z,26.50
2018-11-02T12:56:10.672Z,26.83
2018-11-02T12:58:39.418Z,22.60
2018-11-02T13:01:09.005Z,26.50
2018-11-02T13:06:10.847Z,20.80
2018-11-02T13:08:39.741Z,23.73
2018-11-02T13:11:10.038Z,27.80
2018-11-02T13:13:38.867Z,21.10
2018-11-02T13:16:08.751Z,23.77
2018-11-02T13:18:37.621Z,22.10
2018-11-02T13:21:07.506Z,24.70
2018-11-02T13:23:36.687Z,18.97
2018-11-02T13:26:05.946Z,18.80
2018-11-02T13:28:34.397Z,26.10
2018-11-02T13:31:03.233Z,17.70
2018-11-02T13:33:33.000Z,13.33
2018-11-02T13:36:02.091Z,15.33
2018-11-02T13:38:31.292Z,14.80
2018-11-02T13:40:59.951Z,13.50
2018-11-02T13:43:28.428Z,17.27
2018-11-02T13:45:57.263Z,14.67
2018-11-02T13:48:25.985Z,13.00
2018-11-02T13:50:55.701Z,16.20
2018-11-02T13:53:24.830Z,10.80
2018-11-02T13:55:53.277Z,15.37
2018-11-02T13:58:21.855Z,19.27
2018-11-02T14:00:51.513Z,12.27
2018-11-02T14:03:22.120Z,11.30
2018-11-02T14:05:51.155Z,14.73
2018-11-02T14:08:19.801Z,12.10
2018-11-02T14:10:49.285Z,19.17
2018-11-02T14:13:21.076Z,17.47
2018-11-02T14:18:39.307Z,12.07
2018-11-02T14:21:08.025Z,15.33
2018-11-02T14:23:37.275Z,9.97
2018-11-02T14:26:06.421Z,11.00
2018-11-02T14:28:34.975Z,10.40
2018-11-02T14:31:03.593Z,17.93
2018-11-02T14:33:32.784Z,11.73
2018-11-02T14:36:01.553Z,9.40
2018-11-02T14:38:31.852Z,10.20
2018-11-02T14:41:01.819Z,9.70
2018-11-02T14:43:30.505Z,9.13
2018-11-02T14:45:59.949Z,12.40
2018-11-02T14:48:28.938Z,16.53
2018-11-02T14:50:57.615Z,9.20
2018-11-02T14:53:26.786Z,28.80
2018-11-02T14:55:55.919Z,8.40
2018-11-02T14:58:25.715Z,8.53
2018-11-02T15:00:55.343Z,14.40
2018-11-02T15:03:24.712Z,9.90
2018-11-02T15:05:53.772Z,27.13
2018-11-02T15:08:22.618Z,15.00
2018-11-02T15:10:51.720Z,18.17
2018-11-02T15:13:20.480Z,15.07
2018-11-02T15:15:49.423Z,9.80
2018-11-02T15:18:17.841Z,15.13
2018-11-02T15:20:46.899Z,13.90
2018-11-02T15:23:16.027Z,11.77
2018-11-02T15:25:44.602Z,18.53
2018-11-02T15:28:19.239Z,11.10
2018-11-02T15:30:47.944Z,8.83
2018-11-02T15:33:18.714Z,9.17
2018-11-02T15:35:49.145Z,8.73
2018-11-02T15:38:18.622Z,8.07
2018-11-02T15:40:48.118Z,7.43
2018-11-02T15:43:17.323Z,7.73
2018-11-02T15:45:46.818Z,8.40
2018-11-02T15:48:15.345Z,8.53
2018-11-02T15:50:43.818Z,10.13
2018-11-02T15:53:13.123Z,8.77
2018-11-02T15:55:41.611Z,7.50
2018-11-02T15:58:11.043Z,8.23
2018-11-02T16:00:39.618Z,11.57
2018-11-02T16:03:09.231Z,12.90
2018-11-02T16:05:37.772Z,12.57
2018-11-02T16:08:06.430Z,10.87
2018-11-02T16:10:35.233Z,8.80
2018-11-02T16:13:05.569Z,7.80
2018-11-02T16:15:34.970Z,7.13
2018-11-02T16:18:03.361Z,10.17
2018-11-02T16:20:32.719Z,14.00
2018-11-02T16:23:01.374Z,15.10
2018-11-02T16:25:30.066Z,19.13
2018-11-02T16:27:59.906Z,12.90
2018-11-02T16:30:30.028Z,12.97
2018-11-02T16:32:58.675Z,11.37
2018-11-02T16:35:28.341Z,11.83
2018-11-02T16:38:00.640Z,18.13
2018-11-02T16:40:30.536Z,14.93
2018-11-02T16:43:02.358Z,19.27
2018-11-02T16:45:30.970Z,18.47
2018-11-02T16:48:03.042Z,14.17
2018-11-02T16:50:31.788Z,16.83
2018-11-02T16:53:01.067Z,15.87
2018-11-02T16:55:30.027Z,16.47
2018-11-02T16:57:59.296Z,23.17
2018-11-02T17:00:28.072Z,17.70
2018-11-02T17:02:57.800Z,22.60
2018-11-02T17:05:26.452Z,29.77
2018-11-02T17:07:55.874Z,26.47
2018-11-02T17:10:24.412Z,24.43
2018-11-02T17:12:54.516Z,17.30
2018-11-02T17:15:23.514Z,20.70
2018-11-02T17:17:52.833Z,22.50
2018-11-02T17:20:22.624Z,13.13
2018-11-02T17:22:52.151Z,15.97
2018-11-02T17:25:20.732Z,16.60
2018-11-02T17:27:49.142Z,14.67
2018-11-02T17:30:18.940Z,15.50
2018-11-02T17:32:48.056Z,20.50
2018-11-02T17:35:16.658Z,15.33
2018-11-02T17:37:46.135Z,18.73
2018-11-02T17:40:15.737Z,14.30
2018-11-02T17:42:45.665Z,16.23
2018-11-02T17:45:14.122Z,11.77
2018-11-02T17:47:43.386Z,18.03
2018-11-02T17:50:12.761Z,12.37
2018-11-02T17:52:41.580Z,17.33
2018-11-02T17:55:10.005Z,13.93
2018-11-02T17:57:39.511Z,16.63
2018-11-02T18:00:09.432Z,10.17
2018-11-02T18:02:38.129Z,6.73
2018-11-02T18:05:07.539Z,8.80
2018-11-02T18:07:36.144Z,10.07
2018-11-02T18:10:06.176Z,8.00
2018-11-02T18:12:34.621Z,8.17
2018-11-02T18:15:03.182Z,9.60
2018-11-02T18:17:32.475Z,11.07
2018-11-02T18:20:01.286Z,8.70
2018-11-02T18:22:29.920Z,8.30
2018-11-02T18:24:59.796Z,8.40
2018-11-02T18:27:30.884Z,16.13
2018-11-02T18:29:59.809Z,10.60
2018-11-02T18:32:29.998Z,10.60
2018-11-02T18:35:01.101Z,19.80
2018-11-02T18:37:29.879Z,13.83
2018-11-02T18:40:00.195Z,10.60
2018-11-02T18:42:30.724Z,16.00
2018-11-02T18:45:00.619Z,11.57
2018-11-02T18:47:34.261Z,11.17
2018-11-02T18:50:04.097Z,17.53
2018-11-02T18:52:33.405Z,16.20
2018-11-02T18:55:05.407Z,17.10
2018-11-02T18:57:34.903Z,15.93
2018-11-02T19:00:03.818Z,20.47
2018-11-02T19:02:36.720Z,16.80
2018-11-02T19:05:08.718Z,14.63
2018-11-02T19:07:40.319Z,15.70
2018-11-02T19:10:10.095Z,20.13
2018-11-02T19:12:39.840Z,22.53
2018-11-02T19:15:14.564Z,17.67
2018-11-02T19:17:44.548Z,26.73
2018-11-02T19:20:15.759Z,20.90
2018-11-02T19:22:44.784Z,22.20
2018-11-02T19:25:15.554Z,27.03
2018-11-02T19:27:45.555Z,26.77
2018-11-02T19:30:15.305Z,23.20
2018-11-02T19:32:44.247Z,24.37
2018-11-02T19:35:14.253Z,20.17
2018-11-02T19:37:43.668Z,20.53
2018-11-02T19:40:14.115Z,21.80
2018-11-02T19:42:42.929Z,18.83
2018-11-02T19:45:12.492Z,21.53
2018-11-02T19:47:45.500Z,17.30
2018-11-02T19:50:15.703Z,24.73
2018-11-02T19:52:44.870Z,18.30
2018-11-02T19:55:14.333Z,22.87
2018-11-02T19:57:44.755Z,26.17
2018-11-02T20:00:16.056Z,19.37
2018-11-02T20:02:45.157Z,24.63
2018-11-02T20:05:15.589Z,27.33
2018-11-02T20:07:44.919Z,22.23
2018-11-02T20:10:14.408Z,24.00
2018-11-02T20:15:20.293Z,23.37
2018-11-02T20:17:48.986Z,22.57
2018-11-02T20:20:18.135Z,26.37
2018-11-02T20:22:47.935Z,21.17
2018-11-02T20:25:18.656Z,22.80
2018-11-02T20:27:48.849Z,24.60
2018-11-02T20:30:19.034Z,16.37
2018-11-02T20:32:47.699Z,15.60
2018-11-02T20:35:17.821Z,21.00
2018-11-02T20:37:46.555Z,19.63
2018-11-02T20:40:17.920Z,23.00
2018-11-02T20:42:48.090Z,22.30
2018-11-02T20:45:17.452Z,22.77
2018-11-02T20:47:50.763Z,20.37
2018-11-02T20:50:19.271Z,24.50
2018-11-02T20:52:48.145Z,21.53
2018-11-02T20:55:19.937Z,34.43
2018-11-02T20:57:48.851Z,24.63
2018-11-02T21:00:21.520Z,19.20
2018-11-02T21:02:50.443Z,21.30
2018-11-02T21:05:20.198Z,32.30
2018-11-02T21:07:49.213Z,28.27
2018-11-02T21:10:18.750Z,28.77
2018-11-02T21:12:47.835Z,38.13
2018-11-02T21:15:20.915Z,28.30
2018-11-02T21:17:50.575Z,24.70
2018-11-02T21:20:20.594Z,26.33
2018-11-02T21:22:49.005Z,30.00
2018-11-02T21:25:17.920Z,29.33
2018-11-02T21:27:47.887Z,28.47
2018-11-02T21:30:18.732Z,32.97
2018-11-02T21:32:48.415Z,29.83
2018-11-02T21:35:17.483Z,36.27
2018-11-02T21:37:47.160Z,26.87
2018-11-02T21:40:19.039Z,37.33
2018-11-02T21:42:48.541Z,36.40
2018-11-02T21:45:18.709Z,47.37
2018-11-02T21:47:48.288Z,57.00
2018-11-02T21:50:17.836Z,56.10
2018-11-02T21:52:46.545Z,39.20
2018-11-02T21:55:15.173Z,39.60
2018-11-02T21:57:43.845Z,38.10
2018-11-02T22:00:16.189Z,38.00
2018-11-02T22:02:45.143Z,40.83
2018-11-02T22:05:14.190Z,41.90
2018-11-02T22:07:44.208Z,38.40
2018-11-02T22:10:13.266Z,32.03
2018-11-02T22:12:42.003Z,49.40
2018-11-02T22:15:10.914Z,37.40
2018-11-02T22:17:40.369Z,33.70
2018-11-02T22:20:10.964Z,43.03
2018-11-02T22:22:40.623Z,34.93
2018-11-02T22:25:12.100Z,30.40
2018-11-02T22:27:41.038Z,33.60
2018-11-02T22:30:13.932Z,40.23
2018-11-02T22:32:42.491Z,34.80
2018-11-02T22:35:12.441Z,64.87
2018-11-02T22:37:42.072Z,45.57
2018-11-02T22:40:11.648Z,37.57
2018-11-02T22:42:41.417Z,37.93
2018-11-02T22:45:12.506Z,38.57
2018-11-02T22:47:41.545Z,37.53
2018-11-02T22:50:10.756Z,32.57
2018-11-02T22:52:39.254Z,31.53
2018-11-02T22:55:10.700Z,36.00
2018-11-02T22:57:39.328Z,41.00
2018-11-02T23:00:14.295Z,36.50
2018-11-02T23:02:43.333Z,39.90
2018-11-02T23:05:12.398Z,36.57
2018-11-02T23:07:41.481Z,49.97
2018-11-02T23:10:10.457Z,54.23
2018-11-02T23:12:42.828Z,59.43
2018-11-02T23:15:12.720Z,46.93
2018-11-02T23:17:43.554Z,48.13
2018-11-02T23:20:14.127Z,37.40
2018-11-02T23:22:43.775Z,36.33
2018-11-02T23:25:13.035Z,48.33
2018-11-02T23:27:43.582Z,34.50
2018-11-02T23:30:12.579Z,34.67
2018-11-02T23:32:41.310Z,34.73
2018-11-02T23:35:11.485Z,34.90
2018-11-02T23:37:40.654Z,28.90
2018-11-02T23:40:11.853Z,33.00
2018-11-02T23:42:40.926Z,33.70
2018-11-02T23:45:11.846Z,44.53
2018-11-02T23:47:44.424Z,42.13
2018-11-02T23:50:15.203Z,40.33
2018-11-02T23:52:44.057Z,32.00
2018-11-02T23:55:13.391Z,25.17
2018-11-02T23:57:41.874Z,42.47
